Time;durP1;ratioP1;P1;durP2;ratioP2;P2;SDS_P1;SDS_P2;PMS_P1;PMS_P2;Temp;Humidity;BMP_temperature;BMP_pressure;BME280_temperature;BME280_humidity;BME280_pressure;Samples;Min_cycle;Max_cycle;Signal;HPM_P1;HPM_P2
2024/03/30 00:02:24;;;;;;;3.08;0.57;;;;;;;6.91;76.71;97741.06;4968170;28;20054;-39
2024/03/30 00:04:50;;;;;;;5.22;1.95;;;;;;;6.91;76.23;97745.34;4982456;28;20053;-41
2024/03/30 00:07:15;;;;;;;8.52;3.78;;;;;;;6.89;76.53;97747.97;4978165;28;20102;-39
2024/03/30 00:09:41;;;;;;;5.00;0.80;;;;;;;6.89;77.11;97742.81;4980792;28;20169;-41
2024/03/30 00:12:07;;;;;;;4.60;2.28;;;;;;;6.88;75.48;97750.56;4977889;28;20488;-41
2024/03/30 00:14:32;;;;;;;5.10;2.08;;;;;;;6.88;76.28;97748.00;4974627;28;20058;-41
2024/03/30 00:16:58;;;;;;;5.05;2.65;;;;;;;6.88;76.47;97751.41;4985354;28;20046;-41
2024/03/30 00:19:24;;;;;;;1.83;1.73;;;;;;;6.83;77.31;97748.13;4981272;28;20078;-41
2024/03/30 00:21:49;;;;;;;3.65;1.75;;;;;;;6.84;75.89;97744.66;4964829;28;20062;-39
2024/03/30 00:24:15;;;;;;;0.60;0.40;;;;;;;6.83;77.04;97753.28;4985162;28;20046;-41
2024/03/30 00:26:41;;;;;;;2.72;0.38;;;;;;;6.79;76.99;97749.91;4981118;28;20475;-41
2024/03/30 00:29:06;;;;;;;6.47;2.35;;;;;;;6.78;76.90;97739.66;4986292;28;20060;-40
2024/03/30 00:31:32;;;;;;;5.95;2.88;;;;;;;6.78;76.72;97744.81;4964446;28;20130;-40
2024/03/30 00:33:58;;;;;;;7.32;0.90;;;;;;;6.77;77.24;97748.25;4980211;28;20797;-40
2024/03/30 00:36:23;;;;;;;8.60;2.35;;;;;;;6.73;76.63;97751.78;4980506;28;20085;-41
2024/03/30 00:38:50;;;;;;;8.85;2.30;;;;;;;6.72;76.89;97755.25;4977163;28;20057;-42
2024/03/30 00:41:15;;;;;;;10.38;2.90;;;;;;;6.71;77.15;97750.97;4977941;28;20054;-43
2024/03/30 00:43:43;;;;;;;3.90;2.10;;;;;;;6.67;76.60;97758.78;4989101;28;20042;-41
2024/03/30 00:46:09;;;;;;;4.03;1.02;;;;;;;6.68;76.95;97760.47;4982095;28;20138;-39
2024/03/30 00:48:35;;;;;;;5.07;1.90;;;;;;;6.67;76.56;97758.78;4979250;28;20042;-44
2024/03/30 00:51:01;;;;;;;8.15;2.88;;;;;;;6.66;77.11;97761.41;4985096;28;20038;-42
2024/03/30 00:53:27;;;;;;;3.65;2.45;;;;;;;6.65;78.02;97765.69;4986230;28;20042;-40
2024/03/30 00:56:00;;;;;;;1.88;1.77;;;;;;;6.62;76.78;97770.91;4988932;28;20042;-40
2024/03/30 00:58:28;;;;;;;4.95;0.73;;;;;;;6.63;76.46;97764.88;4984420;28;20764;-40
2024/03/30 01:00:53;;;;;;;6.53;2.33;;;;;;;6.63;77.90;97767.47;4979645;28;20058;-40
2024/03/30 01:03:19;;;;;;;7.85;1.75;;;;;;;6.60;77.62;97770.09;4982654;28;20533;-43
2024/03/30 01:05:46;;;;;;;3.83;2.13;;;;;;;6.61;76.89;97774.34;4990029;28;20059;-39
2024/03/30 01:08:13;;;;;;;5.70;2.40;;;;;;;6.60;77.57;97777.81;4982465;28;20500;-39
2024/03/30 01:10:40;;;;;;;6.22;1.02;;;;;;;6.59;76.94;97777.84;4974587;28;20503;-41
2024/03/30 01:13:07;;;;;;;9.23;2.38;;;;;;;6.59;76.97;97776.13;4984346;28;20816;-39
2024/03/30 01:15:33;;;;;;;8.35;2.85;;;;;;;6.59;77.67;97768.41;4987566;28;20051;-40
2024/03/30 01:18:00;;;;;;;2.67;1.65;;;;;;;6.55;78.13;97779.63;4985259;28;20105;-40
2024/03/30 01:20:27;;;;;;;4.85;1.90;;;;;;;6.53;77.94;97779.69;4962913;28;20059;-39
2024/03/30 01:22:54;;;;;;;5.93;1.63;;;;;;;6.55;78.67;97784.78;4980826;28;20050;-39
2024/03/30 01:25:21;;;;;;;5.00;2.25;;;;;;;6.53;77.19;97789.97;4994368;28;20056;-40
2024/03/30 01:27:48;;;;;;;6.45;1.38;;;;;;;6.49;78.12;97790.06;5000915;28;20108;-40
2024/03/30 01:30:15;;;;;;;3.97;2.95;;;;;;;6.45;78.40;97788.47;5000841;28;20050;-41
2024/03/30 01:32:42;;;;;;;8.93;2.50;;;;;;;6.45;78.06;97791.03;5004719;28;20056;-40
2024/03/30 01:35:09;;;;;;;3.35;2.25;;;;;;;6.41;78.90;97788.53;5002705;28;20065;-42
2024/03/30 01:37:36;;;;;;;3.28;0.65;;;;;;;6.40;79.17;97786.84;4992260;28;20464;-40
2024/03/30 01:40:02;;;;;;;5.88;1.65;;;;;;;6.38;78.88;97787.75;4995391;28;20046;-40
2024/03/30 01:42:30;;;;;;;3.47;1.88;;;;;;;6.35;78.03;97788.63;5005087;28;20597;-41
2024/03/30 01:44:59;;;;;;;7.78;2.25;;;;;;;6.29;79.11;97788.78;4998544;28;20057;-39
2024/03/30 01:47:29;;;;;;;3.88;3.58;;;;;;;6.29;78.52;97794.75;5000480;28;20683;-39
2024/03/30 01:49:58;;;;;;;2.97;1.77;;;;;;;6.26;78.56;97794.00;5005184;28;20061;-39
2024/03/30 01:52:28;;;;;;;10.52;2.40;;;;;;;6.22;79.74;97793.22;4999774;28;20053;-40
2024/03/30 01:54:55;;;;;;;10.52;2.10;;;;;;;6.23;79.51;97799.19;4999789;28;20490;-41
2024/03/30 01:57:23;;;;;;;7.80;2.08;;;;;;;6.20;79.55;97794.13;5002669;28;20061;-40
2024/03/30 01:59:49;;;;;;;12.55;2.58;;;;;;;6.17;79.10;97795.88;4996777;28;20117;-40
2024/03/30 02:02:16;;;;;;;4.93;3.63;;;;;;;6.16;79.63;97799.34;4975905;28;20055;-40
2024/03/30 02:04:42;;;;;;;2.38;2.13;;;;;;;6.16;78.57;97793.34;4980350;28;20062;-40
2024/03/30 02:07:09;;;;;;;4.50;1.98;;;;;;;6.13;80.10;97798.53;4983418;28;20697;-40
2024/03/30 02:09:36;;;;;;;3.20;0.63;;;;;;;6.12;80.20;97805.41;4975986;28;20058;-40
2024/03/30 02:12:02;;;;;;;4.60;2.35;;;;;;;6.11;79.46;97808.84;4983436;28;20050;-40
2024/03/30 02:14:29;;;;;;;8.18;3.40;;;;;;;6.09;80.34;97808.06;5001133;28;20140;-39
2024/03/30 02:16:55;;;;;;;6.10;2.67;;;;;;;6.07;79.20;97814.94;5003752;28;20060;-41
2024/03/30 02:19:21;;;;;;;7.25;1.77;;;;;;;6.04;79.57;97818.44;5000638;28;20081;-40
2024/03/30 02:21:47;;;;;;;4.18;2.33;;;;;;;6.00;80.29;97819.34;4998043;28;20104;-41
2024/03/30 02:24:13;;;;;;;2.75;2.55;;;;;;;6.01;79.93;97823.59;5003613;28;20042;-39
2024/03/30 02:26:39;;;;;;;7.15;1.85;;;;;;;6.01;80.08;97820.19;5000765;28;20054;-41
2024/03/30 02:29:08;;;;;;;2.92;1.80;;;;;;;5.97;80.21;97823.66;5001209;28;20050;-40
2024/03/30 02:31:34;;;;;;;3.75;1.98;;;;;;;5.98;80.58;97817.69;4983235;28;20042;-40
2024/03/30 02:34:01;;;;;;;5.75;2.13;;;;;;;5.98;79.99;97809.97;5001826;28;20050;-41
2024/03/30 02:36:27;;;;;;;5.13;2.13;;;;;;;5.97;80.16;97808.25;5004728;28;20729;-40
2024/03/30 02:38:53;;;;;;;5.57;2.55;;;;;;;5.97;79.99;97811.69;5000161;28;20054;-39
2024/03/30 02:41:18;;;;;;;3.35;1.95;;;;;;;5.98;80.96;97812.53;4996962;28;20058;-40
2024/03/30 02:43:44;;;;;;;7.40;0.88;;;;;;;5.97;80.65;97811.69;5002013;28;20479;-40
2024/03/30 02:46:10;;;;;;;3.55;1.95;;;;;;;5.98;80.39;97809.97;5003716;28;20100;-39
2024/03/30 02:48:37;;;;;;;2.50;1.92;;;;;;;5.98;79.53;97815.09;5000585;28;20050;-40
2024/03/30 02:51:03;;;;;;;7.05;2.38;;;;;;;5.96;80.13;97816.84;5000229;28;20061;-40
2024/03/30 02:53:29;;;;;;;5.70;1.95;;;;;;;5.96;80.02;97816.84;4996093;28;20112;-40
2024/03/30 02:55:54;;;;;;;9.05;2.35;;;;;;;5.95;79.65;97825.44;4980147;28;20512;-42
2024/03/30 02:58:21;;;;;;;4.28;2.47;;;;;;;5.92;79.95;97827.19;5003919;28;20176;-41
2024/03/30 03:00:46;;;;;;;9.77;2.28;;;;;;;5.90;78.79;97826.38;4984509;28;20045;-40
2024/03/30 03:03:12;;;;;;;3.22;2.45;;;;;;;5.88;78.17;97819.59;5002598;28;20053;-41
2024/03/30 03:05:38;;;;;;;8.82;1.95;;;;;;;5.82;80.03;97820.56;4997949;28;20779;-40
2024/03/30 03:08:03;;;;;;;2.85;2.10;;;;;;;5.81;80.04;97813.69;4992759;28;20487;-40
2024/03/30 03:10:30;;;;;;;4.93;2.65;;;;;;;5.81;78.25;97818.84;4999563;28;20045;-41
2024/03/30 03:12:55;;;;;;;4.50;3.13;;;;;;;5.80;78.41;97824.84;4999487;28;20442;-40
2024/03/30 03:15:21;;;;;;;6.68;2.22;;;;;;;5.77;79.99;97827.47;4998971;28;20112;-41
2024/03/30 03:17:47;;;;;;;9.50;1.95;;;;;;;5.75;79.60;97829.25;4992861;28;20076;-41
2024/03/30 03:20:12;;;;;;;4.05;1.88;;;;;;;5.73;78.74;97836.13;4998629;28;20046;-40
2024/03/30 03:22:38;;;;;;;7.72;2.17;;;;;;;5.72;78.57;97837.00;5004439;28;20091;-40
2024/03/30 03:25:04;;;;;;;5.13;0.65;;;;;;;5.67;79.14;97831.94;5003676;28;20451;-40
2024/03/30 03:27:30;;;;;;;7.28;2.03;;;;;;;5.65;79.06;97831.97;4983554;28;20054;-40
2024/03/30 03:29:55;;;;;;;5.22;2.88;;;;;;;5.62;78.93;97826.91;4998039;28;20066;-41
2024/03/30 03:32:21;;;;;;;6.93;2.17;;;;;;;5.60;79.32;97831.22;4980280;28;20530;-42
2024/03/30 03:34:47;;;;;;;4.82;2.85;;;;;;;5.56;78.50;97827.00;4983931;28;20047;-41
2024/03/30 03:37:13;;;;;;;5.03;2.38;;;;;;;5.60;79.31;97835.50;4980708;28;20050;-40
2024/03/30 03:39:38;;;;;;;5.90;2.00;;;;;;;5.59;79.43;97838.94;4977873;28;20054;-41
2024/03/30 03:42:04;;;;;;;4.72;2.90;;;;;;;5.58;79.62;97838.13;4969154;28;20057;-40
2024/03/30 03:44:30;;;;;;;6.15;1.83;;;;;;;5.59;78.21;97831.25;4972244;28;20047;-40
2024/03/30 03:46:56;;;;;;;6.03;1.85;;;;;;;5.58;77.93;97835.56;4960628;28;20072;-41
2024/03/30 03:49:24;;;;;;;4.00;1.83;;;;;;;5.58;79.19;97822.72;4980693;28;20046;-40
2024/03/30 03:51:50;;;;;;;3.90;2.08;;;;;;;5.54;78.46;97826.19;4981135;28;20054;-44
2024/03/30 03:54:16;;;;;;;5.70;1.77;;;;;;;5.55;78.58;97834.75;4973592;28;20050;-40
2024/03/30 03:56:41;;;;;;;4.25;2.05;;;;;;;5.51;78.10;97832.22;4977772;28;20090;-41
2024/03/30 03:59:07;;;;;;;3.42;0.80;;;;;;;5.49;79.10;97828.84;4984076;28;20094;-40
2024/03/30 04:01:32;;;;;;;1.92;1.50;;;;;;;5.48;78.35;97836.56;4970076;28;20456;-42
2024/03/30 04:03:58;;;;;;;4.40;2.17;;;;;;;5.45;79.48;97832.34;4982046;28;20488;-40
2024/03/30 04:06:24;;;;;;;3.80;0.70;;;;;;;5.44;78.19;97827.25;4970805;28;20431;-40
2024/03/30 04:08:50;;;;;;;4.97;2.55;;;;;;;5.45;78.91;97823.78;4978044;28;20050;-40
2024/03/30 04:11:16;;;;;;;2.55;2.22;;;;;;;5.42;78.00;97823.84;4975469;28;20066;-39
2024/03/30 04:13:42;;;;;;;5.50;2.08;;;;;;;5.43;78.17;97828.94;4984128;28;20042;-41
2024/03/30 04:16:08;;;;;;;6.60;2.83;;;;;;;5.43;78.57;97828.94;4975627;28;20527;-40
2024/03/30 04:18:33;;;;;;;5.20;1.23;;;;;;;5.42;78.74;97837.53;4983877;28;20451;-40
2024/03/30 04:21:00;;;;;;;2.22;1.92;;;;;;;5.39;78.79;97833.31;4978765;28;20081;-39
2024/03/30 04:23:29;;;;;;;4.75;2.15;;;;;;;5.37;77.93;97835.03;4976473;28;20054;-40
2024/03/30 04:28:41;;;;;;;5.50;0.90;;;;;;;5.34;79.18;97840.22;5023418;28;20418;-40
2024/03/30 04:31:07;;;;;;;3.70;0.88;;;;;;;5.33;78.62;97833.41;5003240;28;20490;-39
2024/03/30 04:33:33;;;;;;;6.43;1.20;;;;;;;5.31;79.11;97829.16;5002984;28;20057;-41
2024/03/30 04:36:01;;;;;;;1.85;0.90;;;;;;;5.28;78.53;97832.63;4987349;28;20419;-40
2024/03/30 04:38:28;;;;;;;5.45;0.60;;;;;;;5.25;79.19;97830.97;4986536;28;20049;-41
2024/03/30 04:40:56;;;;;;;5.97;1.25;;;;;;;5.27;79.09;97833.53;5003424;28;20108;-40
2024/03/30 04:43:22;;;;;;;4.85;0.80;;;;;;;5.24;79.54;97831.81;5001937;28;20092;-39
2024/03/30 04:45:47;;;;;;;2.40;0.60;;;;;;;5.22;79.05;97832.72;5001723;28;20046;-40
2024/03/30 04:48:13;;;;;;;11.43;1.25;;;;;;;5.22;79.20;97830.16;5002886;28;20555;-41
2024/03/30 04:50:39;;;;;;;4.55;0.77;;;;;;;5.23;78.87;97831.84;5002520;28;20065;-40
2024/03/30 04:53:04;;;;;;;5.53;0.85;;;;;;;5.21;78.98;97839.59;5003015;28;20050;-40
2024/03/30 04:55:30;;;;;;;1.92;0.80;;;;;;;5.20;79.16;97829.34;5001501;28;20061;-40
2024/03/30 04:57:55;;;;;;;2.30;1.08;;;;;;;5.20;79.56;97831.94;4996699;28;20099;-40
2024/03/30 05:00:21;;;;;;;3.08;0.77;;;;;;;5.14;80.27;97827.75;5002567;28;20560;-39
2024/03/30 05:02:47;;;;;;;1.90;0.85;;;;;;;5.14;80.62;97838.00;4999921;28;20149;-40
2024/03/30 05:05:13;;;;;;;0.95;0.65;;;;;;;5.19;80.31;97840.47;5003315;28;20089;-46
2024/03/30 05:07:38;;;;;;;3.33;0.52;;;;;;;5.20;80.10;97847.31;5002971;28;20042;-40
2024/03/30 05:10:04;;;;;;;7.30;0.98;;;;;;;5.21;79.63;97838.75;4985858;28;20046;-39
2024/03/30 05:12:30;;;;;;;6.78;1.17;;;;;;;5.16;79.98;97843.94;5002542;28;20093;-41
2024/03/30 05:14:56;;;;;;;1.58;0.88;;;;;;;5.16;80.17;97845.69;5002439;28;20050;-39
2024/03/30 05:17:22;;;;;;;5.15;0.82;;;;;;;5.18;79.88;97838.78;5002157;28;20054;-40
2024/03/30 05:22:33;;;;;;;4.95;1.17;;;;;;;5.20;80.21;97837.06;4988054;28;20054;-40
2024/03/30 05:24:59;;;;;;;3.97;0.82;;;;;;;5.19;79.82;97835.34;5002089;28;20057;-39
2024/03/30 05:27:24;;;;;;;3.20;0.63;;;;;;;5.19;80.41;97830.22;4998759;28;20124;-40
2024/03/30 05:29:50;;;;;;;2.03;0.77;;;;;;;5.20;80.55;97831.94;5002316;28;20065;-41
2024/03/30 05:32:15;;;;;;;2.88;0.73;;;;;;;5.22;80.64;97832.72;5002652;28;20570;-40
2024/03/30 05:34:41;;;;;;;2.65;2.08;;;;;;;5.21;79.70;97828.47;5001905;28;20060;-41
2024/03/30 05:37:07;;;;;;;4.18;0.45;;;;;;;5.24;79.41;97838.69;5000562;28;20046;-40
2024/03/30 05:39:32;;;;;;;6.40;0.98;;;;;;;5.24;80.71;97836.13;4991746;28;20074;-40
2024/03/30 05:41:58;;;;;;;7.75;0.93;;;;;;;5.25;80.69;97835.25;4985775;28;20415;-40
2024/03/30 05:44:24;;;;;;;4.10;0.93;;;;;;;5.24;79.37;97839.53;4988976;28;20481;-40
2024/03/30 05:46:49;;;;;;;2.45;1.08;;;;;;;5.22;79.58;97846.41;4977502;28;20050;-41
2024/03/30 05:49:15;;;;;;;3.28;0.95;;;;;;;5.20;79.20;97837.06;4989357;28;20050;-39
2024/03/30 05:51:41;;;;;;;4.60;1.30;;;;;;;5.18;79.99;97838.78;4972480;28;20050;-39
2024/03/30 05:54:07;;;;;;;4.63;1.23;;;;;;;5.16;78.94;97838.81;4985221;28;20510;-41
2024/03/30 05:56:32;;;;;;;2.70;0.95;;;;;;;5.15;79.98;97839.69;4988825;28;20062;-41
2024/03/30 05:58:58;;;;;;;7.57;0.80;;;;;;;5.13;78.79;97839.72;4991441;28;20090;-40
2024/03/30 06:01:23;;;;;;;2.13;0.65;;;;;;;5.11;79.00;97841.47;4988054;28;20101;-39
2024/03/30 06:03:49;;;;;;;4.95;1.27;;;;;;;5.10;79.77;97849.19;4990247;28;20574;-40
2024/03/30 06:06:14;;;;;;;5.22;0.88;;;;;;;5.08;79.02;97849.22;4988845;28;20407;-41
2024/03/30 06:08:40;;;;;;;3.17;1.50;;;;;;;5.07;79.48;97844.94;4988731;28;20046;-41
2024/03/30 06:11:06;;;;;;;3.85;1.02;;;;;;;5.06;79.35;97850.94;4988342;28;20125;-40
2024/03/30 06:13:32;;;;;;;2.53;0.98;;;;;;;5.06;78.45;97850.94;4987972;28;20455;-41
2024/03/30 06:16:01;;;;;;;6.50;1.13;;;;;;;5.06;79.48;97845.81;4989360;28;20565;-39
2024/03/30 06:18:26;;;;;;;4.68;1.05;;;;;;;5.08;79.54;97846.66;4987891;28;20049;-41
2024/03/30 06:20:52;;;;;;;5.72;1.00;;;;;;;5.08;79.80;97849.22;4986566;28;20058;-40
2024/03/30 06:23:18;;;;;;;3.28;0.88;;;;;;;5.10;79.27;97846.63;4988283;28;20050;-40
2024/03/30 06:25:43;;;;;;;4.55;1.08;;;;;;;5.11;79.04;97848.31;4982756;28;20065;-40
2024/03/30 06:28:09;;;;;;;4.43;1.00;;;;;;;5.12;79.01;97850.84;4986184;28;20153;-41
2024/03/30 06:30:35;;;;;;;3.83;1.45;;;;;;;5.14;78.59;97849.09;4987736;28;20566;-40
2024/03/30 06:33:01;;;;;;;6.13;1.00;;;;;;;5.17;78.95;97852.50;4986381;28;20773;-39
2024/03/30 06:35:28;;;;;;;2.55;0.98;;;;;;;5.18;79.00;97855.03;4983176;28;20054;-39
2024/03/30 06:37:54;;;;;;;6.75;1.33;;;;;;;5.22;79.00;97860.97;4986906;28;20738;-40
2024/03/30 06:43:59;;;;;;;5.40;0.93;;;;;;;5.26;79.38;97872.88;4973982;28;20046;-40
2024/03/30 06:45:51;;;;;;;2.95;0.55;;;;;;;5.27;79.17;97872.03;4974130;28;20055;-39
2024/03/30 06:48:16;;;;;;;6.55;1.05;;;;;;;5.27;78.51;97872.03;4987774;28;20049;-40
2024/03/30 06:50:42;;;;;;;4.15;1.20;;;;;;;5.32;78.32;97877.91;4986557;28;20134;-40
2024/03/30 06:53:08;;;;;;;3.97;1.10;;;;;;;5.37;79.28;97876.09;4987864;28;20112;-40
2024/03/30 06:55:33;;;;;;;4.43;1.40;;;;;;;5.46;78.01;97882.81;4986934;28;20058;-39
2024/03/30 06:57:59;;;;;;;3.22;1.42;;;;;;;5.55;78.12;97889.53;4990005;28;20046;-40
2024/03/30 07:00:25;;;;;;;7.57;1.10;;;;;;;5.63;78.65;97890.25;4993410;28;20081;-40
2024/03/30 07:02:50;;;;;;;7.65;1.40;;;;;;;5.74;78.88;97892.59;4987426;28;20081;-43
2024/03/30 07:05:16;;;;;;;5.57;1.33;;;;;;;5.85;77.72;97887.28;4988347;28;20058;-41
2024/03/30 07:07:42;;;;;;;7.32;1.30;;;;;;;5.98;77.64;97897.34;4987311;28;20034;-41
2024/03/30 07:10:08;;;;;;;5.28;0.80;;;;;;;6.10;79.01;97911.69;4987044;28;20069;-39
2024/03/30 07:12:34;;;;;;;10.10;1.30;;;;;;;6.25;78.64;97916.53;4985680;28;20062;-40
2024/03/30 07:15:00;;;;;;;4.20;0.82;;;;;;;6.63;77.47;97919.22;4987950;28;20108;-40
2024/03/30 07:17:27;;;;;;;3.65;1.13;;;;;;;7.29;77.54;97925.50;4987770;28;20407;-40
2024/03/30 07:19:53;;;;;;;4.93;1.67;;;;;;;7.95;77.10;97928.19;4987668;28;20446;-41
2024/03/30 07:22:18;;;;;;;3.65;1.40;;;;;;;8.57;76.34;97929.97;4990496;28;20133;-41
2024/03/30 07:24:47;;;;;;;6.40;1.23;;;;;;;9.07;76.28;97931.97;4987321;28;20100;-40
2024/03/30 07:27:13;;;;;;;3.88;1.20;;;;;;;9.52;75.52;97934.84;4986479;28;20397;-40
2024/03/30 07:29:39;;;;;;;6.28;1.15;;;;;;;9.89;74.60;97935.38;4987282;28;20069;-41
2024/03/30 07:32:05;;;;;;;4.03;0.90;;;;;;;10.06;74.04;97942.56;4987204;28;20057;-40
2024/03/30 07:34:31;;;;;;;4.43;1.20;;;;;;;10.13;74.33;97940.59;4970897;28;20046;-40
2024/03/30 07:36:56;;;;;;;4.63;1.38;;;;;;;10.23;73.79;97954.09;4986964;28;20558;-41
2024/03/30 07:39:22;;;;;;;9.10;0.70;;;;;;;10.32;74.02;97947.72;4986153;28;20050;-42
2024/03/30 07:41:48;;;;;;;4.53;1.58;;;;;;;10.31;73.78;97951.22;4987551;28;20053;-40
2024/03/30 07:44:14;;;;;;;8.15;1.60;;;;;;;10.17;72.67;97944.78;4986997;28;20150;-40
2024/03/30 07:46:39;;;;;;;6.90;1.35;;;;;;;10.21;73.36;97948.97;4986621;28;20054;-42
2024/03/30 07:49:05;;;;;;;5.32;1.85;;;;;;;10.59;73.78;97950.25;4987866;28;20092;-41
2024/03/30 07:51:31;;;;;;;7.88;1.58;;;;;;;11.14;72.50;97956.81;4989238;28;20047;-41
2024/03/30 07:53:56;;;;;;;3.38;1.25;;;;;;;11.69;72.48;97958.16;4986606;28;20169;-40
2024/03/30 07:56:24;;;;;;;6.95;1.15;;;;;;;11.83;70.46;97953.22;4987002;28;20054;-40
2024/03/30 07:58:50;;;;;;;2.58;1.65;;;;;;;11.69;71.10;97950.38;4970595;28;20050;-42
2024/03/30 08:01:15;;;;;;;6.93;1.33;;;;;;;11.46;70.97;97953.88;4986905;28;20053;-40
2024/03/30 08:03:41;;;;;;;6.65;1.85;;;;;;;11.17;70.07;97956.72;4986691;28;20065;-40
2024/03/30 08:06:07;;;;;;;6.22;1.92;;;;;;;11.12;71.23;97953.47;4981901;28;20217;-41
2024/03/30 08:08:32;;;;;;;9.40;1.77;;;;;;;11.30;70.67;97947.56;4985477;28;20046;-42
2024/03/30 08:10:58;;;;;;;4.10;1.23;;;;;;;11.48;70.28;97952.09;4986657;28;20178;-42
2024/03/30 08:13:24;;;;;;;4.00;1.13;;;;;;;11.52;70.23;97951.88;4970479;28;20403;-40
2024/03/30 08:15:49;;;;;;;6.45;1.52;;;;;;;11.54;69.58;97959.59;4986870;28;20537;-41
2024/03/30 08:18:15;;;;;;;4.65;1.40;;;;;;;11.57;70.16;97964.66;4986049;28;20046;-42
2024/03/30 08:20:41;;;;;;;4.68;1.27;;;;;;;11.59;70.09;97962.00;4980527;28;20273;-41
2024/03/30 08:23:07;;;;;;;5.80;2.22;;;;;;;11.67;70.35;97966.00;4985945;28;20062;-41
2024/03/30 08:25:36;;;;;;;9.90;1.95;;;;;;;11.92;69.12;97959.78;4985526;28;20046;-42
2024/03/30 08:28:02;;;;;;;11.77;1.45;;;;;;;12.41;69.39;97965.56;4988423;28;20054;-44
2024/03/30 08:30:29;;;;;;;4.45;1.10;;;;;;;13.00;68.80;97965.53;4986064;28;20065;-40
2024/03/30 08:32:55;;;;;;;7.20;1.75;;;;;;;13.60;68.38;97964.47;4986515;28;20057;-42
2024/03/30 08:35:21;;;;;;;5.88;1.80;;;;;;;14.09;66.55;97957.72;4986617;28;20054;-41
2024/03/30 08:37:46;;;;;;;3.22;1.95;;;;;;;14.34;65.28;97966.91;4986184;28;20130;-41
2024/03/30 08:40:12;;;;;;;6.38;1.52;;;;;;;14.51;64.63;97973.00;4986128;28;20249;-41
2024/03/30 08:42:37;;;;;;;4.45;1.10;;;;;;;14.64;64.31;97963.63;4983707;28;20052;-42
2024/03/30 08:45:04;;;;;;;4.95;1.50;;;;;;;14.68;63.93;97973.84;4985572;28;20050;-45
2024/03/30 08:47:29;;;;;;;7.22;2.63;;;;;;;14.87;63.45;97979.81;4985882;28;20050;-41
2024/03/30 08:49:55;;;;;;;4.20;1.45;;;;;;;15.27;63.30;97989.00;4985842;28;20042;-40
2024/03/30 08:52:21;;;;;;;4.72;1.35;;;;;;;15.54;62.47;97988.38;4985344;28;20055;-40
2024/03/30 08:54:46;;;;;;;7.72;1.77;;;;;;;15.81;61.87;97990.34;4985888;28;20057;-42
2024/03/30 08:57:12;;;;;;;5.20;1.17;;;;;;;16.10;62.08;97987.00;4985747;28;20080;-40
2024/03/30 08:59:37;;;;;;;5.30;1.50;;;;;;;16.27;61.23;97992.06;4986186;28;20058;-41
2024/03/30 09:02:03;;;;;;;3.17;1.27;;;;;;;16.49;60.00;97984.72;4986992;28;20479;-40
2024/03/30 09:04:29;;;;;;;5.07;1.38;;;;;;;16.80;60.41;97993.31;4984854;28;20046;-42
2024/03/30 09:06:55;;;;;;;4.85;1.33;;;;;;;17.08;60.20;97987.22;4985298;28;20133;-40
2024/03/30 09:09:21;;;;;;;7.10;1.33;;;;;;;17.40;59.01;97993.97;4985870;28;20466;-41
2024/03/30 09:11:46;;;;;;;8.68;1.65;;;;;;;17.70;58.55;97990.28;4986048;28;20055;-41
2024/03/30 09:14:12;;;;;;;3.80;1.10;;;;;;;17.98;57.92;98000.75;4987878;28;20571;-41
2024/03/30 09:16:38;;;;;;;3.42;1.88;;;;;;;18.10;56.59;97994.72;4989281;28;20054;-41
2024/03/30 09:19:03;;;;;;;8.63;1.70;;;;;;;18.42;56.67;97992.63;4989298;28;20070;-42
2024/03/30 09:21:29;;;;;;;9.07;1.40;;;;;;;18.78;57.18;97992.81;4988803;28;20162;-41
2024/03/30 09:23:55;;;;;;;7.68;1.90;;;;;;;19.24;57.40;97992.22;4992316;28;20061;-40
2024/03/30 09:26:20;;;;;;;3.67;0.95;;;;;;;19.65;55.72;97997.19;4995031;28;20073;-40
2024/03/30 09:28:46;;;;;;;4.85;1.40;;;;;;;19.89;54.40;97991.91;4989153;28;20415;-45
2024/03/30 09:31:11;;;;;;;7.70;1.88;;;;;;;20.12;54.15;98004.31;4989529;28;20432;-41
2024/03/30 09:33:37;;;;;;;8.23;1.40;;;;;;;20.28;53.67;98004.84;4989572;28;20065;-42
2024/03/30 09:36:08;;;;;;;6.35;1.08;;;;;;;20.42;52.45;97997.69;4988473;28;20050;-42
2024/03/30 09:38:34;;;;;;;5.45;1.65;;;;;;;20.52;52.46;97996.03;4989581;28;20063;-42
2024/03/30 09:41:04;;;;;;;2.35;0.93;;;;;;;20.63;51.06;98005.69;4989174;28;20058;-42
2024/03/30 09:43:29;;;;;;;4.53;0.93;;;;;;;20.77;51.91;98001.19;4987844;28;20057;-41
2024/03/30 09:45:57;;;;;;;4.80;0.95;;;;;;;20.81;51.29;97995.53;4985965;28;20058;-43
2024/03/30 09:48:24;;;;;;;7.80;1.15;;;;;;;20.83;50.96;98003.31;4988534;28;20046;-42
2024/03/30 09:50:53;;;;;;;4.47;0.90;;;;;;;21.00;51.96;97999.38;4988206;28;20062;-41
2024/03/30 09:53:19;;;;;;;7.18;1.98;;;;;;;20.97;50.04;98010.16;4988785;28;20177;-41
2024/03/30 09:55:45;;;;;;;7.10;1.00;;;;;;;20.51;50.31;97999.63;4988211;28;20112;-43
2024/03/30 09:58:13;;;;;;;1.60;0.32;;;;;;;20.14;50.83;98002.41;4971877;28;20038;-42
2024/03/30 10:00:40;;;;;;;3.22;1.50;;;;;;;20.15;50.96;98014.59;4988288;28;20570;-40
2024/03/30 10:03:05;;;;;;;6.63;2.05;;;;;;;19.87;49.81;98006.97;5004471;28;20475;-44
2024/03/30 10:05:36;;;;;;;5.30;1.17;;;;;;;19.93;51.37;98010.94;4986679;28;20054;-41
2024/03/30 10:08:03;;;;;;;4.38;1.33;;;;;;;20.10;51.07;98011.47;4987035;28;20046;-40
2024/03/30 10:10:30;;;;;;;7.90;1.30;;;;;;;20.25;50.45;98020.84;4988295;28;20716;-42
2024/03/30 10:13:01;;;;;;;2.92;1.10;;;;;;;20.45;49.76;98018.47;4971687;28;20105;-46
2024/03/30 10:15:50;;;;;;;5.35;1.30;;;;;;;20.62;50.36;98017.19;4972433;28;20050;-40
2024/03/30 10:18:17;;;;;;;6.38;0.82;;;;;;;20.65;50.06;98026.63;4973368;28;20053;-40
2024/03/30 10:20:42;;;;;;;5.32;1.60;;;;;;;20.72;49.47;98030.47;4988231;28;20058;-42
2024/03/30 10:23:09;;;;;;;3.60;1.17;;;;;;;20.49;49.21;98030.44;4990843;28;20183;-42
2024/03/30 10:25:35;;;;;;;3.58;1.17;;;;;;;20.08;48.83;98034.38;4983466;28;20466;-40
2024/03/30 10:28:01;;;;;;;4.47;1.13;;;;;;;19.57;49.01;98031.91;4992384;28;20412;-41
2024/03/30 10:30:28;;;;;;;5.93;1.60;;;;;;;19.29;49.96;98033.03;4988058;28;20069;-41
2024/03/30 10:32:54;;;;;;;3.47;1.40;;;;;;;19.24;49.51;98031.59;4988511;28;20050;-41
2024/03/30 10:35:21;;;;;;;3.15;1.40;;;;;;;19.39;50.87;98028.81;4984236;28;20076;-41
2024/03/30 10:37:47;;;;;;;6.72;1.35;;;;;;;19.52;49.90;98034.84;4988197;28;20046;-40
2024/03/30 10:40:15;;;;;;;3.75;1.75;;;;;;;19.76;50.88;98031.38;4992317;28;20054;-41
2024/03/30 10:42:41;;;;;;;4.22;0.95;;;;;;;20.00;49.68;98038.44;4983197;28;20054;-40
2024/03/30 10:45:07;;;;;;;2.63;0.60;;;;;;;20.02;49.48;98038.31;4986491;28;20580;-42
2024/03/30 10:47:34;;;;;;;1.42;1.33;;;;;;;19.99;48.69;98042.00;4987327;28;20050;-42
2024/03/30 10:50:01;;;;;;;5.00;1.25;;;;;;;19.70;47.67;98041.50;4987665;28;20616;-41
2024/03/30 10:52:27;;;;;;;2.45;1.15;;;;;;;19.26;46.84;98034.91;4983500;28;20061;-41
2024/03/30 10:54:55;;;;;;;4.70;0.52;;;;;;;18.95;47.37;98037.06;4978316;28;20062;-41
2024/03/30 10:57:22;;;;;;;5.18;1.48;;;;;;;18.66;47.92;98037.31;4970796;28;20046;-40
2024/03/30 10:59:49;;;;;;;4.75;1.75;;;;;;;18.29;48.16;98042.41;4967706;28;20088;-41
2024/03/30 11:02:17;;;;;;;7.05;2.90;;;;;;;17.84;49.01;98046.16;4970859;28;20058;-43
2024/03/30 11:04:44;;;;;;;22.77;9.15;;;;;;;17.54;49.25;98040.19;4986616;28;20105;-42
2024/03/30 11:07:12;;;;;;;12.38;6.25;;;;;;;17.38;48.67;98049.94;4985094;28;20047;-42
2024/03/30 11:09:41;;;;;;;4.90;1.95;;;;;;;17.51;50.40;98047.38;4986983;28;20046;-42
2024/03/30 11:12:08;;;;;;;5.07;1.38;;;;;;;17.51;49.38;98047.38;4985914;28;20136;-40
2024/03/30 11:14:34;;;;;;;22.42;9.77;;;;;;;17.52;50.08;98046.44;4986284;28;20499;-41
2024/03/30 11:17:23;;;;;;;7.65;3.70;;;;;;;17.36;48.91;98052.66;4986702;28;20046;-42
2024/03/30 11:20:02;;;;;;;18.98;9.18;;;;;;;17.30;49.36;98048.63;4972823;28;20759;-42
2024/03/30 11:25:30;;;;;;;15.23;8.52;;;;;;;17.66;50.33;98059.50;5030916;27;20411;-42
2024/03/30 11:28:07;;;;;;;4.97;3.03;;;;;;;17.87;50.55;98056.44;5038126;28;20095;-43
2024/03/30 11:30:49;;;;;;;6.05;3.80;;;;;;;17.75;46.82;98054.59;5021989;28;20103;-44
2024/03/30 11:33:20;;;;;;;4.70;3.08;;;;;;;17.76;47.83;98048.44;5029753;28;20104;-45
2024/03/30 11:38:52;;;;;;;1.92;1.23;;;;;;;17.90;48.32;98051.00;5074626;27;20744;-42
2024/03/30 11:41:17;;;;;;;4.57;1.33;;;;;;;17.92;47.63;98054.34;5019275;28;20060;-41
2024/03/30 11:46:29;;;;;;;4.63;1.63;;;;;;;17.92;45.16;98064.84;5026284;27;20399;-43
2024/03/30 11:48:55;;;;;;;6.45;2.63;;;;;;;17.51;47.25;98061.31;5009724;28;20080;-41
2024/03/30 11:51:22;;;;;;;7.15;2.92;;;;;;;17.42;47.95;98067.13;5016071;28;20159;-42
2024/03/30 11:53:47;;;;;;;2.33;0.70;;;;;;;17.34;48.40;98059.78;5013046;28;20470;-41